createdAt,value
2022-10-22T00:02:56.911Z,100475.88
2022-10-22T00:05:59.729Z,100469.75
2022-10-22T00:09:02.448Z,100483.63
2022-10-22T00:12:05.446Z,100485.06
2022-10-22T00:15:08.536Z,100477.34
2022-10-22T00:18:11.100Z,100472.66
2022-10-22T00:21:13.696Z,100475.22
2022-10-22T00:24:16.980Z,100464.78
2022-10-22T00:27:22.700Z,100462.38
2022-10-22T00:30:25.235Z,100459.22
2022-10-22T00:33:28.871Z,100462.16
2022-10-22T00:36:31.447Z,100464.53
2022-10-22T00:39:33.979Z,100454.34
2022-10-22T00:42:36.602Z,100454.91
2022-10-22T00:45:39.391Z,100451.75
2022-10-22T00:48:44.804Z,100441.56
2022-10-22T00:51:47.394Z,100435.97
2022-10-22T00:54:53.400Z,100444.56
2022-10-22T00:57:57.223Z,100446.13
2022-10-22T01:00:59.935Z,100435.12
2022-10-22T01:04:02.571Z,100429.31
2022-10-22T01:07:05.293Z,100427.94
2022-10-22T01:10:21.490Z,100423.56
2022-10-22T01:13:40.131Z,100427.47
2022-10-22T01:16:54.942Z,100437.94
2022-10-22T01:20:13.562Z,100441.53
2022-10-22T01:23:21.402Z,100445.78
2022-10-22T01:26:26.953Z,100446.91
2022-10-22T01:29:52.416Z,100438.50
2022-10-22T01:32:59.301Z,100432.16
2022-10-22T01:36:02.926Z,100427.50
2022-10-22T01:39:05.997Z,100418.28
2022-10-22T01:42:08.552Z,100413.63
2022-10-22T01:45:13.242Z,100410.03
2022-10-22T01:48:45.680Z,100422.59
2022-10-22T01:52:06.947Z,100413.91
2022-10-22T01:55:12.560Z,100402.75
2022-10-22T01:58:36.887Z,100411.44
2022-10-22T02:01:50.386Z,100397.53
2022-10-22T02:04:58.008Z,100404.69
2022-10-22T02:08:04.974Z,100409.69
2022-10-22T02:11:09.364Z,100415.88
2022-10-22T02:14:12.806Z,100402.13
2022-10-22T02:17:20.587Z,100408.03
2022-10-22T02:20:28.822Z,100412.16
2022-10-22T02:23:31.310Z,100411.62
2022-10-22T02:27:06.304Z,100406.09
2022-10-22T02:30:11.757Z,100407.06
2022-10-22T02:33:23.378Z,100409.81
2022-10-22T02:36:29.437Z,100392.87
2022-10-22T02:39:32.771Z,100374.16
2022-10-22T02:42:35.625Z,100359.97
2022-10-22T02:45:38.348Z,100345.09
2022-10-22T02:48:41.075Z,100341.25
2022-10-22T02:51:43.699Z,100339.03
2022-10-22T02:54:46.286Z,100333.00
2022-10-22T02:57:48.908Z,100334.66
2022-10-22T03:00:51.615Z,100310.56
2022-10-22T03:03:54.388Z,100314.78
2022-10-22T03:06:57.016Z,100312.84
2022-10-22T03:10:02.878Z,100310.53
2022-10-22T03:13:05.408Z,100335.06
2022-10-22T03:16:10.550Z,100351.25
2022-10-22T03:19:13.098Z,100366.97
2022-10-22T03:22:25.578Z,100370.13
2022-10-22T03:25:34.729Z,100356.91
2022-10-22T03:28:37.839Z,100353.47
2022-10-22T03:31:40.441Z,100371.41
2022-10-22T03:34:43.060Z,100390.09
2022-10-22T03:37:45.843Z,100376.19
2022-10-22T03:40:48.902Z,100370.97
2022-10-22T03:43:53.291Z,100390.66
2022-10-22T03:46:58.711Z,100396.44
2022-10-22T03:50:06.024Z,100390.66
2022-10-22T03:53:10.745Z,100384.47
2022-10-22T03:56:13.990Z,100382.97
2022-10-22T03:59:16.604Z,100389.16
2022-10-22T04:02:19.191Z,100386.00
2022-10-22T04:05:21.761Z,100357.62
2022-10-22T04:08:24.268Z,100356.00
2022-10-22T04:11:27.259Z,100358.06
2022-10-22T04:14:29.839Z,100357.22
2022-10-22T04:17:36.657Z,100354.34
2022-10-22T04:20:39.294Z,100342.09
2022-10-22T04:23:47.124Z,100337.16
2022-10-22T04:26:51.211Z,100326.97
2022-10-22T04:29:53.814Z,100334.53
2022-10-22T04:32:56.330Z,100337.44
2022-10-22T04:35:58.973Z,100329.44
2022-10-22T04:39:02.322Z,100328.22
2022-10-22T04:42:05.192Z,100339.63
2022-10-22T04:45:08.275Z,100330.12
2022-10-22T04:48:11.160Z,100330.97
2022-10-22T04:51:19.027Z,100316.94
2022-10-22T04:54:21.687Z,100320.66
2022-10-22T04:57:24.251Z,100322.97
2022-10-22T05:00:26.917Z,100315.00
2022-10-22T05:03:29.441Z,100323.25
2022-10-22T05:06:33.136Z,100323.25
2022-10-22T05:09:35.661Z,100325.16
2022-10-22T05:12:41.506Z,100320.62
2022-10-22T05:15:44.028Z,100329.28
2022-10-22T05:18:46.722Z,100330.12
2022-10-22T05:21:49.396Z,100334.38
2022-10-22T05:24:58.838Z,100344.56
2022-10-22T05:28:05.166Z,100348.16
2022-10-22T05:31:12.608Z,100347.19
2022-10-22T05:34:15.895Z,100346.91
2022-10-22T05:37:18.473Z,100349.53
2022-10-22T05:40:30.385Z,100333.56
2022-10-22T05:43:34.523Z,100335.09
2022-10-22T05:46:37.088Z,100334.12
2022-10-22T05:49:43.035Z,100345.56
2022-10-22T05:52:45.619Z,100332.03
2022-10-22T05:55:51.125Z,100343.31
2022-10-22T05:58:54.170Z,100330.62
2022-10-22T06:01:56.873Z,100349.31
2022-10-22T06:05:00.361Z,100344.03
2022-10-22T06:08:03.436Z,100348.81
2022-10-22T06:11:09.085Z,100350.97
2022-10-22T06:14:13.513Z,100354.63
2022-10-22T06:17:16.183Z,100361.88
2022-10-22T06:20:18.935Z,100362.34
2022-10-22T06:23:22.984Z,100361.53
2022-10-22T06:26:26.180Z,100355.66
2022-10-22T06:29:28.822Z,100361.34
2022-10-22T06:32:31.645Z,100357.72
2022-10-22T06:35:34.420Z,100354.63
2022-10-22T06:38:37.145Z,100348.19
2022-10-22T06:41:42.796Z,100343.19
2022-10-22T06:44:45.859Z,100346.38
2022-10-22T06:47:49.221Z,100344.47
2022-10-22T06:50:51.912Z,100345.72
2022-10-22T06:53:56.255Z,100350.53
2022-10-22T06:56:59.057Z,100341.75
2022-10-22T07:00:07.597Z,100355.63
2022-10-22T07:03:14.164Z,100349.06
2022-10-22T07:06:17.073Z,100349.41
2022-10-22T07:09:22.945Z,100356.00
2022-10-22T07:12:26.362Z,100355.28
2022-10-22T07:15:29.029Z,100350.22
2022-10-22T07:18:32.316Z,100351.38
2022-10-22T07:21:35.387Z,100353.81
2022-10-22T07:24:38.029Z,100355.59
2022-10-22T07:27:41.118Z,100353.19
2022-10-22T07:30:43.920Z,100353.41
2022-10-22T07:33:47.033Z,100357.44
2022-10-22T07:36:49.691Z,100353.38
2022-10-22T07:39:52.658Z,100345.09
2022-10-22T07:42:55.509Z,100357.19
2022-10-22T07:45:59.789Z,100370.69
2022-10-22T07:49:02.452Z,100367.41
2022-10-22T07:52:05.349Z,100374.97
2022-10-22T07:55:08.474Z,100388.00
2022-10-22T07:58:12.039Z,100392.87
2022-10-22T08:01:15.045Z,100396.72
2022-10-22T08:04:17.692Z,100391.91
2022-10-22T08:07:20.591Z,100396.94
2022-10-22T08:10:23.734Z,100402.50
2022-10-22T08:13:27.641Z,100407.53
2022-10-22T08:16:30.584Z,100401.81
2022-10-22T08:19:33.563Z,100413.75
2022-10-22T08:22:36.479Z,100397.88
2022-10-22T08:25:39.549Z,100391.94
2022-10-22T08:28:42.570Z,100391.62
2022-10-22T08:31:45.481Z,100388.09
2022-10-22T08:34:48.223Z,100377.72
2022-10-22T08:37:51.166Z,100376.09
2022-10-22T08:41:04.283Z,100392.47
2022-10-22T08:44:24.941Z,100404.78
2022-10-22T08:48:07.309Z,100406.78
2022-10-22T08:51:20.251Z,100404.72
2022-10-22T08:54:46.016Z,100412.41
2022-10-22T08:57:55.867Z,100414.06
2022-10-22T09:01:40.489Z,100423.75
2022-10-22T09:04:49.563Z,100420.03
2022-10-22T09:07:53.323Z,100426.72
2022-10-22T09:11:19.468Z,100428.31
2022-10-22T09:14:23.970Z,100427.06
2022-10-22T09:17:35.854Z,100431.59
2022-10-22T09:20:38.692Z,100433.72
2022-10-22T09:24:00.662Z,100440.56
2022-10-22T09:27:20.348Z,100449.25
2022-10-22T09:30:31.223Z,100457.72
2022-10-22T09:33:34.202Z,100460.19
2022-10-22T09:36:38.344Z,100476.84
2022-10-22T09:39:44.680Z,100490.28
2022-10-22T09:42:47.425Z,100497.16
2022-10-22T09:45:58.289Z,100498.84
2022-10-22T09:49:02.217Z,100510.28
2022-10-22T09:52:26.931Z,100510.59
2022-10-22T09:55:29.729Z,100512.72
2022-10-22T09:58:43.044Z,100498.47
2022-10-22T10:01:45.881Z,100511.72
2022-10-22T10:04:51.502Z,100497.66
2022-10-22T10:07:54.161Z,100491.13
2022-10-22T10:11:29.292Z,100497.72
2022-10-22T10:14:38.274Z,100507.31
2022-10-22T10:17:46.761Z,100493.16
2022-10-22T10:21:16.467Z,100490.50
2022-10-22T10:24:44.095Z,100479.53
2022-10-22T10:28:16.547Z,100498.34
2022-10-22T10:31:50.344Z,100501.66
2022-10-22T10:35:11.806Z,100505.78
2022-10-22T10:38:25.955Z,100512.47
2022-10-22T10:41:37.561Z,100517.31
2022-10-22T10:45:01.702Z,100516.84
2022-10-22T10:48:27.441Z,100515.13
2022-10-22T10:51:52.015Z,100518.13
2022-10-22T10:55:19.348Z,100539.66
2022-10-22T10:58:39.152Z,100530.16
2022-10-22T11:02:00.971Z,100501.03
2022-10-22T11:05:30.783Z,100497.47
2022-10-22T11:08:42.294Z,100500.75
2022-10-22T11:11:52.583Z,100515.00
2022-10-22T11:15:11.683Z,100509.25
2022-10-22T11:18:37.434Z,100520.22
2022-10-22T11:22:06.955Z,100541.06
2022-10-22T11:25:12.815Z,100536.66
2022-10-22T11:28:18.880Z,100540.78
2022-10-22T11:31:25.028Z,100529.63
2022-10-22T11:34:42.784Z,100534.84
2022-10-22T11:37:46.000Z,100537.03
2022-10-22T11:41:02.655Z,100534.94
2022-10-22T11:44:09.912Z,100546.34
2022-10-22T11:47:25.924Z,100534.56
2022-10-22T11:50:47.703Z,100533.81
2022-10-22T11:53:56.921Z,100543.41
2022-10-22T11:57:15.315Z,100536.38
2022-10-22T12:00:41.635Z,100554.19
2022-10-22T12:04:12.684Z,100556.00
2022-10-22T12:07:49.777Z,100549.81
2022-10-22T12:11:02.045Z,100556.28
2022-10-22T12:14:24.668Z,100555.56
2022-10-22T12:17:28.539Z,100556.03
2022-10-22T12:20:31.398Z,100540.22
2022-10-22T12:23:35.761Z,100533.66
2022-10-22T12:26:38.531Z,100544.25
2022-10-22T12:29:41.988Z,100548.53
2022-10-22T12:32:44.932Z,100540.31
2022-10-22T12:35:49.298Z,100546.63
2022-10-22T12:38:52.099Z,100533.94
2022-10-22T12:41:55.142Z,100544.66
2022-10-22T12:44:57.878Z,100545.50
2022-10-22T12:48:07.023Z,100545.47
2022-10-22T12:51:15.606Z,100529.69
2022-10-22T12:54:29.977Z,100526.41
2022-10-22T12:57:32.690Z,100520.75
2022-10-22T13:00:35.981Z,100524.75
2022-10-22T13:03:52.416Z,100516.81
2022-10-22T13:07:18.481Z,100522.66
2022-10-22T13:10:32.751Z,100525.97
2022-10-22T13:13:45.971Z,100520.12
2022-10-22T13:17:06.412Z,100522.75
2022-10-22T13:20:20.175Z,100524.41
2022-10-22T13:23:28.363Z,100530.06
2022-10-22T13:26:34.699Z,100529.69
2022-10-22T13:29:41.847Z,100531.16
2022-10-22T13:32:50.524Z,100538.72
2022-10-22T13:35:54.616Z,100535.91
2022-10-22T13:38:57.741Z,100536.53
2022-10-22T13:42:00.667Z,100534.25
2022-10-22T13:45:03.344Z,100544.66
2022-10-22T13:48:06.722Z,100544.28
2022-10-22T13:51:31.499Z,100542.66
2022-10-22T13:54:34.210Z,100548.75
2022-10-22T13:57:36.978Z,100542.28
2022-10-22T14:00:44.262Z,100534.44
2022-10-22T14:03:47.758Z,100542.03
2022-10-22T14:06:50.487Z,100547.84
2022-10-22T14:09:53.094Z,100543.66
2022-10-22T14:12:55.747Z,100553.78
2022-10-22T14:15:58.333Z,100547.12
2022-10-22T14:19:01.665Z,100547.12
2022-10-22T14:22:05.328Z,100549.75
2022-10-22T14:25:11.974Z,100560.06
2022-10-22T14:28:15.147Z,100552.75
2022-10-22T14:31:17.990Z,100552.16
2022-10-22T14:34:20.751Z,100549.06
2022-10-22T14:37:25.202Z,100536.38
2022-10-22T14:40:27.846Z,100532.81
2022-10-22T14:43:31.465Z,100539.34
2022-10-22T14:46:37.232Z,100542.88
2022-10-22T14:49:40.027Z,100544.50
2022-10-22T14:52:43.894Z,100542.69
2022-10-22T14:55:49.281Z,100544.69
2022-10-22T14:58:53.678Z,100556.75
2022-10-22T15:01:59.410Z,100553.16
2022-10-22T15:05:02.027Z,100557.16
2022-10-22T15:08:05.580Z,100564.31
2022-10-22T15:11:11.393Z,100563.19
2022-10-22T15:14:15.690Z,100572.75
2022-10-22T15:17:19.389Z,100573.63
2022-10-22T15:20:22.111Z,100576.44
2022-10-22T15:23:25.687Z,100575.31
2022-10-22T15:26:29.418Z,100581.44
2022-10-22T15:29:33.332Z,100574.19
2022-10-22T15:32:36.581Z,100574.38
2022-10-22T15:35:39.312Z,100575.19
2022-10-22T15:38:42.381Z,100584.28
2022-10-22T15:41:47.244Z,100581.00
2022-10-22T15:44:50.288Z,100591.75
2022-10-22T15:47:53.023Z,100593.22
2022-10-22T15:50:55.754Z,100596.37
2022-10-22T15:53:59.560Z,100597.72
2022-10-22T15:57:03.889Z,100593.75
2022-10-22T16:00:07.731Z,100599.69
2022-10-22T16:03:10.428Z,100606.63
2022-10-22T16:06:13.174Z,100606.97
2022-10-22T16:09:19.770Z,100600.38
2022-10-22T16:12:23.165Z,100608.28
2022-10-22T16:15:26.681Z,100618.19
2022-10-22T16:18:29.950Z,100615.72
2022-10-22T16:21:35.912Z,100612.91
2022-10-22T16:24:41.390Z,100619.19
2022-10-22T16:27:49.749Z,100623.81
2022-10-22T16:30:56.530Z,100631.72
2022-10-22T16:33:59.364Z,100628.09
2022-10-22T16:37:02.800Z,100640.47
2022-10-22T16:40:08.249Z,100632.88
2022-10-22T16:43:11.383Z,100648.56
2022-10-22T16:46:17.510Z,100648.56
2022-10-22T16:49:20.659Z,100628.59
2022-10-22T16:52:23.425Z,100630.56
2022-10-22T16:55:27.152Z,100629.72
2022-10-22T16:58:33.471Z,100634.03
2022-10-22T17:01:40.888Z,100630.88
2022-10-22T17:04:44.238Z,100636.16
2022-10-22T17:07:47.223Z,100640.63
2022-10-22T17:10:50.325Z,100638.31
2022-10-22T17:13:54.642Z,100653.50
2022-10-22T17:16:57.907Z,100657.47
2022-10-22T17:20:01.047Z,100650.37
2022-10-22T17:23:05.038Z,100665.03
2022-10-22T17:26:09.898Z,100665.53
2022-10-22T17:29:13.871Z,100670.00
2022-10-22T17:32:16.860Z,100670.16
2022-10-22T17:35:20.576Z,100687.63
2022-10-22T17:38:23.603Z,100686.16
2022-10-22T17:41:30.027Z,100701.31
2022-10-22T17:44:33.027Z,100708.09
2022-10-22T17:47:37.938Z,100708.25
2022-10-22T17:50:48.218Z,100682.50
2022-10-22T17:53:54.176Z,100708.37
2022-10-22T17:56:57.741Z,100702.59
2022-10-22T18:00:00.624Z,100707.53
2022-10-22T18:03:03.661Z,100716.78
2022-10-22T18:06:10.814Z,100720.72
2022-10-22T18:09:18.435Z,100713.59
2022-10-22T18:12:22.072Z,100714.09
2022-10-22T18:15:26.251Z,100722.47
2022-10-22T18:18:29.363Z,100716.03
2022-10-22T18:21:34.083Z,100723.94
2022-10-22T18:24:37.364Z,100714.84
2022-10-22T18:27:40.793Z,100717.31
2022-10-22T18:30:45.706Z,100717.78
2022-10-22T18:33:49.117Z,100727.44
2022-10-22T18:36:52.364Z,100733.53
2022-10-22T18:39:55.342Z,100732.84
2022-10-22T18:43:04.816Z,100738.44
2022-10-22T18:46:08.536Z,100742.72
2022-10-22T18:49:18.464Z,100737.94
2022-10-22T18:52:21.677Z,100734.78
2022-10-22T18:55:24.876Z,100735.28
2022-10-22T18:58:29.166Z,100753.56
2022-10-22T19:01:35.470Z,100750.06
2022-10-22T19:04:38.531Z,100762.75
2022-10-22T19:07:41.828Z,100759.91
2022-10-22T19:10:46.875Z,100764.72
2022-10-22T19:13:50.519Z,100768.50
2022-10-22T19:16:53.595Z,100775.44
2022-10-22T19:20:00.459Z,100762.91
2022-10-22T19:23:04.957Z,100776.78
2022-10-22T19:26:11.535Z,100783.75
2022-10-22T19:29:16.878Z,100794.97
2022-10-22T19:32:20.350Z,100791.50
2022-10-22T19:35:23.540Z,100793.66
2022-10-22T19:38:29.911Z,100805.75
2022-10-22T19:41:33.285Z,100792.59
2022-10-22T19:44:36.375Z,100796.41
2022-10-22T19:47:39.257Z,100797.38
2022-10-22T19:50:42.205Z,100807.28
2022-10-22T19:53:47.791Z,100814.72
2022-10-22T19:56:51.369Z,100809.63
2022-10-22T19:59:54.525Z,100815.25
2022-10-22T20:02:58.332Z,100811.62
2022-10-22T20:06:01.117Z,100809.81
2022-10-22T20:09:04.022Z,100817.25
2022-10-22T20:12:06.888Z,100807.03
2022-10-22T20:15:09.673Z,100813.59
2022-10-22T20:18:12.329Z,100817.41
2022-10-22T20:21:17.052Z,100833.41
2022-10-22T20:24:20.049Z,100824.00
2022-10-22T20:27:22.806Z,100814.91
2022-10-22T20:30:25.914Z,100824.13
2022-10-22T20:33:28.722Z,100827.41
2022-10-22T20:36:32.828Z,100826.22
2022-10-22T20:39:35.698Z,100838.91
2022-10-22T20:42:42.209Z,100836.91
2022-10-22T20:45:45.589Z,100844.63
2022-10-22T20:48:52.200Z,100848.00
2022-10-22T20:51:55.310Z,100848.16
2022-10-22T20:54:58.148Z,100857.53
2022-10-22T20:58:00.904Z,100857.84
2022-10-22T21:01:10.243Z,100862.78
2022-10-22T21:04:13.373Z,100859.19
2022-10-22T21:07:15.989Z,100855.56
2022-10-22T21:10:18.673Z,100852.78
2022-10-22T21:13:21.294Z,100849.47
2022-10-22T21:16:24.178Z,100851.94
2022-10-22T21:19:27.208Z,100847.34
2022-10-22T21:22:29.885Z,100849.94
2022-10-22T21:25:32.600Z,100849.41
2022-10-22T21:28:36.830Z,100849.72
2022-10-22T21:31:40.655Z,100855.16
2022-10-22T21:34:44.155Z,100859.22
2022-10-22T21:37:46.975Z,100854.47
2022-10-22T21:40:50.339Z,100851.94
2022-10-22T21:43:53.128Z,100874.06
2022-10-22T21:46:55.925Z,100864.28
2022-10-22T21:49:58.496Z,100852.41
2022-10-22T21:53:01.295Z,100854.47
2022-10-22T21:56:04.764Z,100856.25
2022-10-22T21:59:07.667Z,100856.03
2022-10-22T22:02:11.234Z,100849.63
2022-10-22T22:05:13.997Z,100852.56
2022-10-22T22:08:17.169Z,100863.56
2022-10-22T22:11:27.599Z,100870.78
2022-10-22T22:14:31.032Z,100857.75
2022-10-22T22:17:33.704Z,100868.34
2022-10-22T22:20:39.420Z,100874.31
2022-10-22T22:23:43.876Z,100872.78
2022-10-22T22:26:46.561Z,100884.47
2022-10-22T22:29:49.343Z,100879.50
2022-10-22T22:32:51.888Z,100886.72
2022-10-22T22:35:58.867Z,100880.47
2022-10-22T22:39:01.480Z,100883.56
2022-10-22T22:42:04.470Z,100882.59
2022-10-22T22:45:07.485Z,100890.47
2022-10-22T22:48:10.140Z,100893.94
2022-10-22T22:51:16.030Z,100893.94
2022-10-22T22:54:18.642Z,100894.25
2022-10-22T22:57:21.429Z,100891.31
2022-10-22T23:00:24.044Z,100897.25
2022-10-22T23:03:26.654Z,100892.13
2022-10-22T23:06:32.479Z,100890.19
2022-10-22T23:09:35.496Z,100895.81
2022-10-22T23:12:38.256Z,100894.31
2022-10-22T23:15:40.876Z,100892.81
2022-10-22T23:18:44.519Z,100896.56
2022-10-22T23:21:52.432Z,100889.81
2022-10-22T23:24:55.092Z,100896.19
2022-10-22T23:27:57.872Z,100891.31
2022-10-22T23:31:05.216Z,100897.25
2022-10-22T23:34:08.309Z,100900.84
2022-10-22T23:37:12.298Z,100902.50
2022-10-22T23:40:15.029Z,100902.66
2022-10-22T23:43:17.628Z,100908.22
2022-10-22T23:46:20.364Z,100902.81
2022-10-22T23:49:23.328Z,100903.94
2022-10-22T23:52:26.185Z,100902.44
2022-10-22T23:55:28.763Z,100909.34
2022-10-22T23:58:31.607Z,100917.56
